createdAt,value
2018-10-06T00:02:05.058Z,7.87
2018-10-06T00:04:32.503Z,7.17
2018-10-06T00:07:00.275Z,7.58
2018-10-06T00:09:28.433Z,7.10
2018-10-06T00:11:55.969Z,7.60
2018-10-06T00:14:23.503Z,7.50
2018-10-06T00:16:50.993Z,7.80
2018-10-06T00:19:18.440Z,7.50
2018-10-06T00:21:46.248Z,7.45
2018-10-06T00:24:14.033Z,7.20
2018-10-06T00:26:41.602Z,7.30
2018-10-06T00:29:09.197Z,7.40
2018-10-06T00:31:36.896Z,7.50
2018-10-06T00:34:04.957Z,7.60
2018-10-06T00:36:32.428Z,7.62
2018-10-06T00:38:59.988Z,7.47
2018-10-06T00:41:27.456Z,7.42
2018-10-06T00:43:54.887Z,7.20
2018-10-06T00:46:22.367Z,7.83
2018-10-06T00:48:50.064Z,7.62
2018-10-06T00:51:17.768Z,7.37
2018-10-06T00:53:45.263Z,7.90
2018-10-06T00:56:12.945Z,7.75
2018-10-06T00:58:40.437Z,8.10
2018-10-06T01:01:07.895Z,7.30
2018-10-06T01:03:35.360Z,7.57
2018-10-06T01:06:03.177Z,7.60
2018-10-06T01:08:30.944Z,7.75
2018-10-06T01:10:58.705Z,7.58
2018-10-06T01:13:26.150Z,7.40
2018-10-06T01:15:53.683Z,7.60
2018-10-06T01:18:21.750Z,8.53
2018-10-06T01:20:49.269Z,7.58
2018-10-06T01:23:16.806Z,8.30
2018-10-06T01:25:44.279Z,8.20
2018-10-06T01:28:11.801Z,7.53
2018-10-06T01:30:39.658Z,7.90
2018-10-06T01:33:07.155Z,8.10
2018-10-06T01:35:34.607Z,8.50
2018-10-06T01:38:02.184Z,8.50
2018-10-06T01:40:29.891Z,8.55
2018-10-06T01:42:57.656Z,8.70
2018-10-06T01:45:25.191Z,8.30
2018-10-06T01:47:52.740Z,8.33
2018-10-06T01:50:20.193Z,8.67
2018-10-06T01:52:48.024Z,8.48
2018-10-06T01:55:15.768Z,7.90
2018-10-06T01:57:43.532Z,9.20
2018-10-06T02:00:11.399Z,8.85
2018-10-06T02:02:39.204Z,8.33
2018-10-06T02:05:06.929Z,9.20
2018-10-06T02:07:34.496Z,8.20
2018-10-06T02:10:01.928Z,8.70
2018-10-06T02:12:29.390Z,9.08
2018-10-06T02:14:57.177Z,9.38
2018-10-06T02:17:24.677Z,8.55
2018-10-06T02:19:52.524Z,8.70
2018-10-06T02:22:19.950Z,8.55
2018-10-06T02:24:47.538Z,8.68
2018-10-06T02:27:15.314Z,8.90
2018-10-06T02:29:42.887Z,8.98
2018-10-06T02:32:10.364Z,9.00
2018-10-06T02:34:37.870Z,8.80
2018-10-06T02:37:05.653Z,9.20
2018-10-06T02:39:33.143Z,9.45
2018-10-06T02:42:00.795Z,8.60
2018-10-06T02:44:28.361Z,9.50
2018-10-06T02:46:56.100Z,10.70
2018-10-06T02:49:25.373Z,9.83
2018-10-06T02:51:54.350Z,9.73
2018-10-06T02:54:22.304Z,10.20
2018-10-06T02:56:52.052Z,10.13
2018-10-06T02:59:19.639Z,10.00
2018-10-06T03:01:47.141Z,9.50
2018-10-06T03:04:14.623Z,10.40
2018-10-06T03:06:42.204Z,9.83
2018-10-06T03:09:10.551Z,9.60
2018-10-06T03:11:38.472Z,9.43
2018-10-06T03:14:06.621Z,9.37
2018-10-06T03:16:34.344Z,9.08
2018-10-06T03:19:02.025Z,9.88
2018-10-06T03:21:29.624Z,9.80
2018-10-06T03:23:57.661Z,10.27
2018-10-06T03:26:25.709Z,9.23
2018-10-06T03:28:53.332Z,9.40
2018-10-06T03:31:20.893Z,9.28
2018-10-06T03:33:48.528Z,9.98
2018-10-06T03:36:17.040Z,9.80
2018-10-06T03:38:44.476Z,9.45
2018-10-06T03:41:12.136Z,9.58
2018-10-06T03:43:39.608Z,9.53
2018-10-06T03:46:07.063Z,9.60
2018-10-06T03:48:34.581Z,9.60
2018-10-06T03:51:02.549Z,9.80
2018-10-06T03:53:30.621Z,9.98
2018-10-06T03:55:58.306Z,10.00
2018-10-06T03:58:26.165Z,9.25
2018-10-06T04:00:53.863Z,10.20
2018-10-06T04:03:22.025Z,10.40
2018-10-06T04:05:49.679Z,10.40
2018-10-06T04:08:17.952Z,9.63
2018-10-06T04:10:45.528Z,10.30
2018-10-06T04:13:13.157Z,9.88
2018-10-06T04:15:40.740Z,10.08
2018-10-06T04:18:08.710Z,10.15
2018-10-06T04:20:36.152Z,10.10
2018-10-06T04:23:04.115Z,9.90
2018-10-06T04:25:31.880Z,10.45
2018-10-06T04:27:59.647Z,9.80
2018-10-06T04:30:27.752Z,10.30
2018-10-06T04:32:55.236Z,9.90
2018-10-06T04:35:23.188Z,10.75
2018-10-06T04:37:50.727Z,10.90
2018-10-06T04:40:18.676Z,10.40
2018-10-06T04:42:46.359Z,11.05
2018-10-06T04:45:14.218Z,10.30
2018-10-06T04:47:41.823Z,10.90
2018-10-06T04:50:09.252Z,11.10
2018-10-06T04:52:36.956Z,10.80
2018-10-06T04:55:04.684Z,10.90
2018-10-06T04:57:32.228Z,10.50
2018-10-06T04:59:59.816Z,10.80
2018-10-06T05:02:27.869Z,10.95
2018-10-06T05:04:55.500Z,12.10
2018-10-06T05:07:23.798Z,11.55
2018-10-06T05:09:51.236Z,11.08
2018-10-06T05:12:19.483Z,10.50
2018-10-06T05:14:46.949Z,11.35
2018-10-06T05:17:14.776Z,11.15
2018-10-06T05:19:42.652Z,10.80
2018-10-06T05:22:10.193Z,11.60
2018-10-06T05:24:38.152Z,11.20
2018-10-06T05:27:06.435Z,10.88
2018-10-06T05:29:34.640Z,10.50
2018-10-06T05:32:02.475Z,10.80
2018-10-06T05:34:30.677Z,10.88
2018-10-06T05:36:58.709Z,9.80
2018-10-06T05:39:26.121Z,10.77
2018-10-06T05:41:53.629Z,9.95
2018-10-06T05:44:21.697Z,9.83
2018-10-06T05:46:49.325Z,10.23
2018-10-06T05:49:16.748Z,9.28
2018-10-06T05:51:44.441Z,10.35
2018-10-06T05:54:12.823Z,10.40
2018-10-06T05:56:40.542Z,10.50
2018-10-06T05:59:08.449Z,10.10
2018-10-06T06:01:35.913Z,9.68
2018-10-06T06:04:03.702Z,9.68
2018-10-06T06:06:31.168Z,9.80
2018-10-06T06:08:58.657Z,9.20
2018-10-06T06:11:26.212Z,9.55
2018-10-06T06:13:54.137Z,8.95
2018-10-06T06:16:21.875Z,9.40
2018-10-06T06:18:49.521Z,9.00
2018-10-06T06:21:17.265Z,9.07
2018-10-06T06:23:45.042Z,9.10
2018-10-06T06:26:12.737Z,8.93
2018-10-06T06:28:40.201Z,8.93
2018-10-06T06:31:07.689Z,8.90
2018-10-06T06:33:35.285Z,9.20
2018-10-06T06:36:02.924Z,9.30
2018-10-06T06:38:31.113Z,8.80
2018-10-06T06:40:58.698Z,8.68
2018-10-06T06:43:27.165Z,8.70
2018-10-06T06:45:54.853Z,8.38
2018-10-06T06:48:23.672Z,9.33
2018-10-06T06:50:51.148Z,35.92
2018-10-06T06:53:18.908Z,12.17
2018-10-06T06:55:46.467Z,9.10
2018-10-06T06:58:14.832Z,8.15
2018-10-06T07:00:42.337Z,7.83
2018-10-06T07:03:10.587Z,8.10
2018-10-06T07:05:38.038Z,8.00
2018-10-06T07:08:05.746Z,8.00
2018-10-06T07:10:33.254Z,7.50
2018-10-06T07:13:00.793Z,7.85
2018-10-06T07:15:28.347Z,7.78
2018-10-06T07:17:55.884Z,7.70
2018-10-06T07:20:23.363Z,7.50
2018-10-06T07:22:51.095Z,7.55
2018-10-06T07:25:18.620Z,7.92
2018-10-06T07:27:46.153Z,7.80
2018-10-06T07:30:13.583Z,7.72
2018-10-06T07:32:41.083Z,7.33
2018-10-06T07:35:08.588Z,7.50
2018-10-06T07:37:36.104Z,6.80
2018-10-06T07:40:05.057Z,6.55
2018-10-06T07:42:32.773Z,5.97
2018-10-06T07:45:01.523Z,6.22
2018-10-06T07:47:29.956Z,6.53
2018-10-06T07:49:57.545Z,11.38
2018-10-06T07:52:25.125Z,7.00
2018-10-06T07:54:52.578Z,6.60
2018-10-06T07:57:20.331Z,6.75
2018-10-06T07:59:47.879Z,8.00
2018-10-06T08:02:15.672Z,5.47
2018-10-06T08:04:43.443Z,6.37
2018-10-06T08:07:11.371Z,5.87
2018-10-06T08:09:39.712Z,5.83
2018-10-06T08:12:07.651Z,6.12
2018-10-06T08:14:35.592Z,6.70
2018-10-06T08:17:03.429Z,6.28
2018-10-06T08:19:30.944Z,6.30
2018-10-06T08:21:58.942Z,5.60
2018-10-06T08:24:26.449Z,5.25
2018-10-06T08:26:54.480Z,5.55
2018-10-06T08:29:22.556Z,5.50
2018-10-06T08:31:50.893Z,5.90
2018-10-06T08:34:18.701Z,5.95
2018-10-06T08:36:46.915Z,5.80
2018-10-06T08:39:14.640Z,5.55
2018-10-06T08:41:42.336Z,6.20
2018-10-06T08:44:10.571Z,5.78
2018-10-06T08:46:38.330Z,5.70
2018-10-06T08:49:05.951Z,6.30
2018-10-06T08:51:33.428Z,5.80
2018-10-06T08:54:01.072Z,6.22
2018-10-06T08:56:29.350Z,12.00
2018-10-06T08:58:56.708Z,6.28
2018-10-06T09:01:24.800Z,12.30
2018-10-06T09:03:52.905Z,11.70
2018-10-06T09:06:21.101Z,7.40
2018-10-06T09:08:49.582Z,6.10
2018-10-06T09:11:17.699Z,5.43
2018-10-06T09:13:45.462Z,6.33
2018-10-06T09:16:13.271Z,6.20
2018-10-06T09:18:40.951Z,6.10
2018-10-06T09:21:09.824Z,5.90
2018-10-06T09:23:37.807Z,6.40
2018-10-06T09:26:05.956Z,5.50
2018-10-06T09:28:33.644Z,5.50
2018-10-06T09:31:01.297Z,5.20
2018-10-06T09:33:28.941Z,5.00
2018-10-06T09:35:56.393Z,4.93
2018-10-06T09:38:24.124Z,4.90
2018-10-06T09:40:51.825Z,5.10
2018-10-06T09:43:19.451Z,4.70
2018-10-06T09:45:46.984Z,6.15
2018-10-06T09:48:14.640Z,7.25
2018-10-06T09:50:43.417Z,5.07
2018-10-06T09:53:11.283Z,5.17
2018-10-06T09:55:38.998Z,5.70
2018-10-06T09:58:06.941Z,4.97
2018-10-06T10:00:39.846Z,4.78
2018-10-06T10:03:12.869Z,4.40
2018-10-06T10:05:48.389Z,4.22
2018-10-06T10:08:17.828Z,4.37
2018-10-06T10:10:46.593Z,5.00
2018-10-06T10:13:14.073Z,6.40
2018-10-06T10:15:41.792Z,6.78
2018-10-06T10:18:10.346Z,5.67
2018-10-06T10:20:37.950Z,6.10
2018-10-06T10:23:05.882Z,5.20
2018-10-06T10:25:34.806Z,4.70
2018-10-06T10:28:02.868Z,5.47
2018-10-06T10:30:31.097Z,5.40
2018-10-06T10:32:58.664Z,5.80
2018-10-06T10:35:26.496Z,4.80
2018-10-06T10:37:54.478Z,4.80
2018-10-06T10:40:22.075Z,6.00
2018-10-06T10:42:49.965Z,7.00
2018-10-06T10:45:17.730Z,6.80
2018-10-06T10:47:45.200Z,6.75
2018-10-06T10:50:12.685Z,6.25
2018-10-06T10:52:40.131Z,6.37
2018-10-06T10:55:07.625Z,6.53
2018-10-06T10:57:35.232Z,6.45
2018-10-06T11:00:02.951Z,6.30
2018-10-06T11:02:30.280Z,5.90
2018-10-06T11:04:58.082Z,5.80
2018-10-06T11:07:25.875Z,5.97
2018-10-06T11:09:53.341Z,5.13
2018-10-06T11:12:21.281Z,5.85
2018-10-06T11:14:48.781Z,5.50
2018-10-06T11:17:16.339Z,7.37
2018-10-06T11:19:43.901Z,4.83
2018-10-06T11:22:11.648Z,4.83
2018-10-06T11:24:39.680Z,6.07
2018-10-06T11:27:07.153Z,5.62
2018-10-06T11:29:34.916Z,5.67
2018-10-06T11:32:02.848Z,5.80
2018-10-06T11:34:30.823Z,5.50
2018-10-06T11:36:58.312Z,5.80
2018-10-06T11:39:25.863Z,5.95
2018-10-06T11:41:53.628Z,6.40
2018-10-06T11:44:21.373Z,5.87
2018-10-06T11:46:49.092Z,5.90
2018-10-06T11:49:16.591Z,4.97
2018-10-06T11:51:44.085Z,5.72
2018-10-06T11:54:11.521Z,5.67
2018-10-06T11:56:39.045Z,6.00
2018-10-06T11:59:06.783Z,6.53
2018-10-06T12:01:34.249Z,7.10
2018-10-06T12:04:02.162Z,6.40
2018-10-06T12:06:30.437Z,6.20
2018-10-06T12:08:58.489Z,5.30
2018-10-06T12:11:26.112Z,5.30
2018-10-06T12:13:54.056Z,6.05
2018-10-06T12:16:22.178Z,6.30
2018-10-06T12:18:50.237Z,6.10
2018-10-06T12:21:17.875Z,5.92
2018-10-06T12:23:45.540Z,6.23
2018-10-06T12:26:13.226Z,5.97
2018-10-06T12:28:40.976Z,5.97
2018-10-06T12:31:08.819Z,6.25
2018-10-06T12:33:36.757Z,6.10
2018-10-06T12:36:05.197Z,6.03
2018-10-06T12:38:33.144Z,5.50
2018-10-06T12:41:00.997Z,6.80
2018-10-06T12:43:28.908Z,6.25
2018-10-06T12:45:56.460Z,5.60
2018-10-06T12:48:24.195Z,5.80
2018-10-06T12:50:51.932Z,5.67
2018-10-06T12:53:20.320Z,5.78
2018-10-06T12:55:48.195Z,4.90
2018-10-06T12:58:15.845Z,5.00
2018-10-06T13:00:43.845Z,5.42
2018-10-06T13:03:11.605Z,5.07
2018-10-06T13:05:39.093Z,5.60
2018-10-06T13:08:06.784Z,5.00
2018-10-06T13:10:34.352Z,4.70
2018-10-06T13:13:01.861Z,4.70
2018-10-06T13:15:29.636Z,5.12
2018-10-06T13:17:57.207Z,4.90
2018-10-06T13:20:25.709Z,5.80
2018-10-06T13:22:54.500Z,6.00
2018-10-06T13:25:22.475Z,5.93
2018-10-06T13:27:50.361Z,4.70
2018-10-06T13:30:18.463Z,5.60
2018-10-06T13:32:47.131Z,5.00
2018-10-06T13:35:14.677Z,4.53
2018-10-06T13:37:42.741Z,4.77
2018-10-06T13:40:10.825Z,5.30
2018-10-06T13:42:38.281Z,5.28
2018-10-06T13:45:06.309Z,5.50
2018-10-06T13:47:33.822Z,5.30
2018-10-06T13:50:01.259Z,5.35
2018-10-06T13:52:28.722Z,5.55
2018-10-06T13:54:57.324Z,6.27
2018-10-06T13:57:25.915Z,5.58
2018-10-06T13:59:54.164Z,4.83
2018-10-06T14:02:22.011Z,4.30
2018-10-06T14:04:49.968Z,5.50
2018-10-06T14:07:17.903Z,5.57
2018-10-06T14:09:46.093Z,5.20
2018-10-06T14:12:13.735Z,5.67
2018-10-06T14:14:41.988Z,5.37
2018-10-06T14:17:09.863Z,6.08
2018-10-06T14:19:37.340Z,4.30
2018-10-06T14:22:04.919Z,7.40
2018-10-06T14:24:33.165Z,5.13
2018-10-06T14:27:00.664Z,5.37
2018-10-06T14:29:28.496Z,4.30
2018-10-06T14:31:55.949Z,4.45
2018-10-06T14:34:24.611Z,4.70
2018-10-06T14:36:52.253Z,5.00
2018-10-06T14:39:20.023Z,5.25
2018-10-06T14:41:47.790Z,5.12
2018-10-06T14:44:15.514Z,4.87
2018-10-06T14:46:42.976Z,5.23
2018-10-06T14:49:10.411Z,4.90
2018-10-06T14:51:38.121Z,5.60
2018-10-06T14:54:05.947Z,5.27
2018-10-06T14:56:33.616Z,5.65
2018-10-06T14:59:01.602Z,5.57
2018-10-06T15:01:29.785Z,5.40
2018-10-06T15:03:58.719Z,4.70
2018-10-06T15:06:26.399Z,4.70
2018-10-06T15:08:55.083Z,5.42
2018-10-06T15:11:22.757Z,5.17
2018-10-06T15:13:50.223Z,5.05
2018-10-06T15:16:17.736Z,6.10
2018-10-06T15:18:45.344Z,4.67
2018-10-06T15:21:12.872Z,4.83
2018-10-06T15:23:40.397Z,4.70
2018-10-06T15:26:08.004Z,5.10
2018-10-06T15:28:35.585Z,4.40
2018-10-06T15:31:03.244Z,5.80
2018-10-06T15:33:30.960Z,4.72
2018-10-06T15:35:58.483Z,4.30
2018-10-06T15:38:26.234Z,4.20
2018-10-06T15:40:53.759Z,4.20
2018-10-06T15:43:21.630Z,6.78
2018-10-06T15:45:49.083Z,7.50
2018-10-06T15:48:16.567Z,7.87
2018-10-06T15:50:43.985Z,7.33
2018-10-06T15:53:11.514Z,5.80
2018-10-06T15:55:39.260Z,10.15
2018-10-06T15:58:06.796Z,10.10
2018-10-06T16:00:34.465Z,11.65
2018-10-06T16:03:02.063Z,10.10
2018-10-06T16:05:29.574Z,6.22
2018-10-06T16:07:57.092Z,5.53
2018-10-06T16:10:24.556Z,6.65
2018-10-06T16:12:52.319Z,5.47
2018-10-06T16:15:19.805Z,4.80
2018-10-06T16:17:47.300Z,4.78
2018-10-06T16:20:14.842Z,4.80
2018-10-06T16:22:42.316Z,5.25
2018-10-06T16:25:09.881Z,4.60
2018-10-06T16:27:37.537Z,5.47
2018-10-06T16:30:06.138Z,6.60
2018-10-06T16:32:33.759Z,7.23
2018-10-06T16:35:01.578Z,7.70
2018-10-06T16:37:29.035Z,7.70
2018-10-06T16:39:56.751Z,8.63
2018-10-06T16:42:24.307Z,9.58
2018-10-06T16:44:52.078Z,10.80
2018-10-06T16:47:20.089Z,12.60
2018-10-06T16:49:47.635Z,12.40
2018-10-06T16:52:15.301Z,12.13
2018-10-06T16:54:42.877Z,12.00
2018-10-06T16:57:11.058Z,11.40
2018-10-06T16:59:38.857Z,12.07
2018-10-06T17:02:06.691Z,15.00
2018-10-06T17:04:34.158Z,16.20
2018-10-06T17:07:01.815Z,16.10
2018-10-06T17:09:30.017Z,16.00
2018-10-06T17:11:58.453Z,16.00
2018-10-06T17:14:26.149Z,16.20
2018-10-06T17:16:53.948Z,14.30
2018-10-06T17:19:22.390Z,14.20
2018-10-06T17:21:50.760Z,12.20
2018-10-06T17:24:18.985Z,10.40
2018-10-06T17:26:46.607Z,11.10
2018-10-06T17:29:14.357Z,12.73
2018-10-06T17:31:43.102Z,12.40
2018-10-06T17:34:10.660Z,12.63
2018-10-06T17:36:38.147Z,11.68
2018-10-06T17:39:06.596Z,13.80
2018-10-06T17:41:34.397Z,12.73
2018-10-06T17:44:02.460Z,16.40
2018-10-06T17:46:30.083Z,20.90
2018-10-06T17:48:57.589Z,22.27
2018-10-06T17:51:25.681Z,24.10
2018-10-06T17:53:53.731Z,22.35
2018-10-06T17:56:21.261Z,23.40
2018-10-06T17:58:48.744Z,24.80
2018-10-06T18:01:16.882Z,23.73
2018-10-06T18:03:44.565Z,26.90
2018-10-06T18:06:12.138Z,28.85
2018-10-06T18:08:39.653Z,26.93
2018-10-06T18:11:07.156Z,27.30
2018-10-06T18:13:34.896Z,34.03
2018-10-06T18:16:02.701Z,39.03
2018-10-06T18:18:30.870Z,33.33
2018-10-06T18:20:59.105Z,31.73
2018-10-06T18:23:26.716Z,26.73
2018-10-06T18:25:54.191Z,23.62
2018-10-06T18:28:21.705Z,22.97
2018-10-06T18:30:49.213Z,20.50
2018-10-06T18:33:16.683Z,20.70
2018-10-06T18:35:45.569Z,19.25
2018-10-06T18:38:13.028Z,17.80
2018-10-06T18:40:40.846Z,17.85
2018-10-06T18:43:08.280Z,16.75
2018-10-06T18:45:36.976Z,18.40
2018-10-06T18:48:04.456Z,18.10
2018-10-06T18:50:32.611Z,14.97
2018-10-06T18:53:00.048Z,15.60
2018-10-06T18:55:27.571Z,14.87
2018-10-06T18:57:55.008Z,12.50
2018-10-06T19:00:22.834Z,12.30
2018-10-06T19:02:50.324Z,10.82
2018-10-06T19:05:17.855Z,9.97
2018-10-06T19:07:45.332Z,9.60
2018-10-06T19:10:12.877Z,9.40
2018-10-06T19:12:40.501Z,9.50
2018-10-06T19:15:07.957Z,10.80
2018-10-06T19:17:35.465Z,12.53
2018-10-06T19:20:02.923Z,14.10
2018-10-06T19:22:30.429Z,14.47
2018-10-06T19:24:57.979Z,13.98
2018-10-06T19:27:25.509Z,13.00
2018-10-06T19:29:53.318Z,12.90
2018-10-06T19:32:20.816Z,12.70
2018-10-06T19:34:48.349Z,13.40
2018-10-06T19:37:15.831Z,15.32
2018-10-06T19:39:43.284Z,16.15
2018-10-06T19:42:10.821Z,15.40
2018-10-06T19:44:39.073Z,15.00
2018-10-06T19:47:07.799Z,15.38
2018-10-06T19:49:35.500Z,14.40
2018-10-06T19:52:03.516Z,14.85
2018-10-06T19:54:31.028Z,14.07
2018-10-06T19:56:58.533Z,14.78
2018-10-06T19:59:26.096Z,13.83
2018-10-06T20:01:53.681Z,13.43
2018-10-06T20:04:21.286Z,15.18
2018-10-06T20:06:48.749Z,14.43
2018-10-06T20:09:16.522Z,13.58
2018-10-06T20:11:44.024Z,13.10
2018-10-06T20:14:11.825Z,12.80
2018-10-06T20:16:39.348Z,12.55
2018-10-06T20:19:06.880Z,13.20
2018-10-06T20:21:34.433Z,12.78
2018-10-06T20:24:02.159Z,13.53
2018-10-06T20:26:29.896Z,13.40
2018-10-06T20:28:57.405Z,14.15
2018-10-06T20:31:24.872Z,14.13
2018-10-06T20:33:53.029Z,15.20
2018-10-06T20:36:20.634Z,16.07
2018-10-06T20:38:48.113Z,16.50
2018-10-06T20:41:15.724Z,16.97
2018-10-06T20:43:43.529Z,16.73
2018-10-06T20:46:11.148Z,17.20
2018-10-06T20:48:38.673Z,18.23
2018-10-06T20:51:07.369Z,17.10
2018-10-06T20:53:34.923Z,18.85
2018-10-06T20:56:02.381Z,17.90
2018-10-06T20:58:30.016Z,18.07
2018-10-06T21:00:57.437Z,18.85
2018-10-06T21:03:24.980Z,18.77
2018-10-06T21:05:52.571Z,19.52
2018-10-06T21:08:21.283Z,19.35
2018-10-06T21:10:49.389Z,17.70
2018-10-06T21:13:16.857Z,18.50
2018-10-06T21:15:44.398Z,18.40
2018-10-06T21:18:11.903Z,17.07
2018-10-06T21:20:39.551Z,17.05
2018-10-06T21:23:07.904Z,15.87
2018-10-06T21:25:36.223Z,16.70
2018-10-06T21:28:04.252Z,15.68
2018-10-06T21:30:32.231Z,15.00
2018-10-06T21:32:59.852Z,15.43
2018-10-06T21:35:27.914Z,15.53
2018-10-06T21:37:55.691Z,16.00
2018-10-06T21:40:24.492Z,14.40
2018-10-06T21:42:52.284Z,14.00
2018-10-06T21:45:20.242Z,14.75
2018-10-06T21:47:47.671Z,14.45
2018-10-06T21:50:15.245Z,14.30
2018-10-06T21:52:43.136Z,14.80
2018-10-06T21:55:11.261Z,15.57
2018-10-06T21:57:38.798Z,14.90
2018-10-06T22:00:06.376Z,15.10
2018-10-06T22:02:34.188Z,14.60
2018-10-06T22:05:01.982Z,14.70
2018-10-06T22:07:30.405Z,13.70
2018-10-06T22:09:58.216Z,13.20
2018-10-06T22:12:25.728Z,12.40
2018-10-06T22:14:53.924Z,12.45
2018-10-06T22:17:21.472Z,12.68
2018-10-06T22:19:49.235Z,12.55
2018-10-06T22:22:16.722Z,11.50
2018-10-06T22:24:44.509Z,11.40
2018-10-06T22:27:12.486Z,10.80
2018-10-06T22:29:40.284Z,11.40
2018-10-06T22:32:08.050Z,10.35
2018-10-06T22:34:35.508Z,9.80
2018-10-06T22:37:03.171Z,11.60
2018-10-06T22:39:30.623Z,10.70
2018-10-06T22:42:01.084Z,9.15
2018-10-06T22:44:29.057Z,10.17
2018-10-06T22:47:12.534Z,10.40
2018-10-06T22:49:40.622Z,9.55
2018-10-06T22:52:20.165Z,9.38
2018-10-06T22:54:51.585Z,9.25
2018-10-06T22:57:19.343Z,8.60
2018-10-06T22:59:47.566Z,9.00
2018-10-06T23:02:19.185Z,8.93
2018-10-06T23:04:48.558Z,9.53
2018-10-06T23:07:16.227Z,8.30
2018-10-06T23:09:48.446Z,9.28
2018-10-06T23:12:17.173Z,9.08
2018-10-06T23:14:48.540Z,9.15
2018-10-06T23:17:17.607Z,9.18
2018-10-06T23:19:48.199Z,9.10
2018-10-06T23:22:17.758Z,9.15
2018-10-06T23:24:46.878Z,9.10
2018-10-06T23:27:16.204Z,9.30
2018-10-06T23:29:46.675Z,9.70
2018-10-06T23:32:17.093Z,9.03
2018-10-06T23:34:46.261Z,9.50
2018-10-06T23:37:14.757Z,9.40
2018-10-06T23:39:44.884Z,9.50
2018-10-06T23:42:14.618Z,10.50
2018-10-06T23:44:44.369Z,9.55
2018-10-06T23:47:12.560Z,9.93
2018-10-06T23:49:41.360Z,11.38
2018-10-06T23:52:12.791Z,10.35
2018-10-06T23:54:42.652Z,10.60
2018-10-06T23:57:12.174Z,11.03
2018-10-06T23:59:41.109Z,12.10
